createdAt,value
2023-02-22T00:01:22.080Z,59.10
2023-02-22T00:05:31.629Z,59.10
2023-02-22T00:09:41.063Z,59.15
2023-02-22T00:13:50.626Z,59.25
2023-02-22T00:18:00.149Z,59.38
2023-02-22T00:21:49.507Z,59.44
2023-02-22T00:25:58.940Z,59.42
2023-02-22T00:29:43.441Z,59.48
2023-02-22T00:33:53.014Z,59.43
2023-02-22T00:38:02.359Z,59.50
2023-02-22T00:42:04.735Z,59.45
2023-02-22T00:46:12.921Z,59.49
2023-02-22T00:50:22.703Z,59.58
2023-02-22T00:54:16.043Z,59.70
2023-02-22T00:58:25.404Z,59.68
2023-02-22T01:02:23.660Z,59.68
2023-02-22T01:06:25.074Z,59.72
2023-02-22T01:10:34.700Z,59.79
2023-02-22T01:14:44.254Z,59.81
2023-02-22T01:18:53.917Z,59.61
2023-02-22T01:22:48.156Z,59.59
2023-02-22T01:26:57.621Z,59.67
2023-02-22T01:31:07.420Z,59.63
2023-02-22T01:35:17.051Z,59.55
2023-02-22T01:39:26.715Z,59.58
2023-02-22T01:43:36.254Z,59.57
2023-02-22T01:47:45.736Z,59.53
2023-02-22T01:51:58.242Z,59.48
2023-02-22T01:55:51.301Z,59.48
2023-02-22T02:00:00.659Z,59.61
2023-02-22T02:04:02.506Z,59.71
2023-02-22T02:08:12.011Z,59.76
2023-02-22T02:12:21.651Z,59.71
2023-02-22T02:16:31.241Z,59.69
2023-02-22T02:20:46.476Z,59.81
2023-02-22T02:25:00.579Z,59.84
2023-02-22T02:29:34.566Z,59.78
2023-02-22T02:33:59.205Z,59.63
2023-02-22T02:38:05.884Z,59.58
2023-02-22T02:42:18.367Z,59.69
2023-02-22T02:46:24.885Z,59.90
2023-02-22T02:50:52.763Z,60.09
2023-02-22T02:55:02.122Z,60.27
2023-02-22T02:58:51.301Z,60.53
2023-02-22T03:03:03.796Z,60.82
2023-02-22T03:07:22.358Z,60.95
2023-02-22T03:11:26.825Z,61.06
2023-02-22T03:15:54.458Z,61.27
2023-02-22T03:20:18.900Z,61.27
2023-02-22T03:24:46.760Z,61.53
2023-02-22T03:28:56.280Z,61.67
2023-02-22T03:33:05.962Z,63.98
2023-02-22T03:37:11.702Z,65.10
2023-02-22T03:41:21.272Z,64.75
2023-02-22T03:45:30.720Z,64.13
2023-02-22T03:50:04.341Z,63.21
2023-02-22T03:53:42.651Z,62.96
2023-02-22T03:57:55.324Z,62.49
2023-02-22T04:02:01.067Z,62.62
2023-02-22T04:06:10.676Z,62.29
2023-02-22T04:10:19.961Z,62.17
2023-02-22T04:14:29.755Z,61.94
2023-02-22T04:18:39.020Z,61.76
2023-02-22T04:22:48.595Z,61.77
2023-02-22T04:26:58.269Z,61.75
2023-02-22T04:31:07.937Z,61.78
2023-02-22T04:35:17.484Z,61.64
2023-02-22T04:39:17.293Z,61.32
2023-02-22T04:54:35.570Z,61.19
2023-02-22T04:58:13.267Z,59.66
2023-02-22T05:02:22.711Z,59.11
2023-02-22T05:06:15.331Z,60.45
2023-02-22T05:10:08.400Z,62.80
2023-02-22T05:13:44.804Z,64.50
2023-02-22T05:17:53.282Z,65.27
2023-02-22T05:22:02.820Z,65.44
2023-02-22T05:26:04.070Z,65.68
2023-02-22T05:30:03.971Z,65.93
2023-02-22T05:33:36.346Z,66.22
2023-02-22T05:37:35.097Z,66.23
2023-02-22T05:41:20.754Z,66.09
2023-02-22T05:45:23.841Z,65.84
2023-02-22T05:49:23.971Z,65.74
2023-02-22T05:53:33.431Z,65.66
2023-02-22T05:57:42.767Z,65.43
2023-02-22T06:01:18.004Z,65.25
2023-02-22T06:04:47.458Z,64.85
2023-02-22T06:08:58.406Z,64.66
2023-02-22T06:12:57.846Z,64.49
2023-02-22T06:16:54.522Z,64.26
2023-02-22T06:21:04.152Z,64.15
2023-02-22T06:25:13.815Z,64.03
2023-02-22T06:29:23.306Z,63.75
2023-02-22T06:33:33.010Z,63.58
2023-02-22T06:37:30.048Z,63.42
2023-02-22T06:41:39.610Z,63.33
2023-02-22T06:45:49.574Z,63.25
2023-02-22T06:49:59.168Z,63.12
2023-02-22T06:54:08.438Z,62.89
2023-02-22T06:58:00.939Z,62.22
2023-02-22T07:01:55.678Z,61.67
2023-02-22T07:05:58.152Z,61.42
2023-02-22T07:10:07.692Z,61.44
2023-02-22T07:14:06.094Z,61.42
2023-02-22T07:17:35.099Z,61.22
2023-02-22T07:21:44.881Z,60.92
2023-02-22T07:25:54.295Z,60.74
2023-02-22T07:30:03.807Z,60.95
2023-02-22T07:34:12.392Z,61.03
2023-02-22T07:37:35.835Z,60.84
2023-02-22T07:41:45.041Z,60.44
2023-02-22T07:45:49.762Z,60.29
2023-02-22T07:49:59.237Z,59.99
2023-02-22T07:54:08.770Z,58.25
2023-02-22T07:58:18.161Z,57.11
2023-02-22T08:02:27.786Z,57.38
2023-02-22T08:06:00.289Z,57.97
2023-02-22T08:10:10.013Z,58.67
2023-02-22T08:13:47.891Z,59.07
2023-02-22T08:17:02.226Z,60.10
2023-02-22T08:21:11.830Z,60.34
2023-02-22T08:25:21.469Z,62.55
2023-02-22T08:29:29.953Z,63.99
2023-02-22T08:33:39.684Z,63.66
2023-02-22T08:37:49.237Z,63.13
2023-02-22T08:41:47.438Z,62.58
2023-02-22T08:45:57.822Z,61.99
2023-02-22T08:50:07.583Z,61.23
2023-02-22T08:54:16.777Z,60.59
2023-02-22T08:58:26.391Z,58.32
2023-02-22T09:02:35.799Z,57.00
2023-02-22T09:06:45.881Z,56.92
2023-02-22T09:10:48.082Z,57.31
2023-02-22T09:14:56.955Z,57.67
2023-02-22T09:19:06.337Z,57.86
2023-02-22T09:23:15.820Z,58.11
2023-02-22T09:27:24.959Z,58.42
2023-02-22T09:31:34.470Z,59.01
2023-02-22T09:35:32.565Z,60.12
2023-02-22T09:39:05.283Z,60.86
2023-02-22T09:43:17.548Z,62.74
2023-02-22T09:47:30.261Z,64.06
2023-02-22T09:51:33.455Z,63.72
2023-02-22T09:55:48.706Z,63.31
2023-02-22T09:59:40.414Z,63.13
2023-02-22T10:03:56.020Z,63.03
2023-02-22T10:07:50.625Z,63.31
2023-02-22T10:12:27.666Z,63.55
2023-02-22T10:16:36.867Z,63.54
2023-02-22T10:21:01.848Z,63.48
2023-02-22T10:25:15.924Z,63.57
2023-02-22T10:29:28.403Z,63.48
2023-02-22T10:33:55.958Z,63.41
2023-02-22T10:38:08.344Z,63.32
2023-02-22T10:42:12.053Z,63.22
2023-02-22T10:46:19.948Z,63.00
2023-02-22T10:50:19.885Z,62.77
2023-02-22T10:54:18.027Z,62.51
2023-02-22T10:58:33.706Z,62.42
2023-02-22T11:02:39.527Z,62.34
2023-02-22T11:07:01.179Z,62.10
2023-02-22T11:10:53.740Z,61.76
2023-02-22T11:15:07.839Z,61.38
2023-02-22T11:18:57.238Z,61.11
2023-02-22T11:23:05.428Z,60.77
2023-02-22T11:27:17.437Z,60.58
2023-02-22T11:31:02.907Z,60.23
2023-02-22T11:35:14.602Z,58.34
2023-02-22T11:39:05.813Z,57.34
2023-02-22T11:43:02.071Z,57.79
2023-02-22T11:47:07.288Z,58.35
2023-02-22T11:51:19.973Z,58.99
2023-02-22T11:55:44.776Z,59.44
2023-02-22T12:00:15.644Z,59.94
2023-02-22T12:04:24.856Z,62.69
2023-02-22T12:08:41.498Z,63.87
2023-02-22T12:12:57.112Z,63.50
2023-02-22T12:17:11.545Z,62.54
2023-02-22T12:21:00.984Z,61.60
2023-02-22T12:25:10.839Z,61.35
2023-02-22T12:29:35.423Z,59.97
2023-02-22T12:33:47.851Z,57.38
2023-02-22T12:38:00.696Z,56.24
2023-02-22T12:41:54.154Z,56.45
2023-02-22T12:46:04.092Z,56.89
2023-02-22T12:50:16.384Z,57.22
2023-02-22T12:54:35.104Z,57.49
2023-02-22T12:58:55.552Z,57.83
2023-02-22T13:03:09.640Z,58.29
2023-02-22T13:07:04.968Z,58.68
2023-02-22T13:11:38.493Z,58.43
2023-02-22T13:15:32.811Z,59.18
2023-02-22T13:19:43.197Z,59.61
2023-02-22T13:24:20.411Z,59.93
2023-02-22T13:28:46.524Z,60.17
2023-02-22T13:32:32.825Z,60.50
2023-02-22T13:35:59.740Z,60.76
2023-02-22T13:39:58.209Z,60.97
2023-02-22T13:43:13.756Z,61.18
2023-02-22T13:47:30.995Z,61.29
2023-02-22T13:51:43.313Z,61.47
2023-02-22T13:55:36.856Z,61.42
2023-02-22T13:59:07.153Z,61.55
2023-02-22T14:03:15.419Z,61.40
2023-02-22T14:07:17.129Z,61.44
2023-02-22T14:11:24.345Z,61.60
2023-02-22T14:15:30.192Z,63.76
2023-02-22T14:19:22.700Z,64.89
2023-02-22T14:22:47.672Z,64.77
2023-02-22T14:27:03.729Z,64.34
2023-02-22T14:31:17.429Z,63.70
2023-02-22T14:35:47.891Z,63.04
2023-02-22T14:39:49.393Z,62.35
2023-02-22T14:44:03.220Z,61.74
2023-02-22T14:48:11.026Z,61.02
2023-02-22T14:52:12.211Z,60.53
2023-02-22T14:56:04.518Z,58.48
2023-02-22T14:59:59.876Z,57.04
2023-02-22T15:04:07.105Z,56.74
2023-02-22T15:08:28.586Z,56.94
2023-02-22T15:12:33.786Z,57.38
2023-02-22T15:16:09.819Z,57.88
2023-02-22T15:20:13.671Z,58.30
2023-02-22T15:24:25.962Z,59.04
2023-02-22T15:28:35.716Z,59.92
2023-02-22T15:31:56.520Z,62.65
2023-02-22T15:35:28.615Z,64.30
2023-02-22T15:39:38.192Z,65.03
2023-02-22T15:43:14.972Z,64.98
2023-02-22T15:46:57.672Z,64.76
2023-02-22T15:51:13.158Z,64.65
2023-02-22T15:54:48.525Z,64.69
2023-02-22T15:58:38.421Z,64.91
2023-02-22T16:02:20.711Z,64.80
2023-02-22T16:06:32.540Z,64.85
2023-02-22T16:10:40.964Z,65.10
2023-02-22T16:14:33.526Z,65.22
2023-02-22T16:18:01.602Z,65.30
2023-02-22T16:21:46.051Z,65.21
2023-02-22T16:25:58.256Z,65.27
2023-02-22T16:30:18.673Z,65.28
2023-02-22T16:34:28.470Z,65.23
2023-02-22T16:38:30.892Z,65.10
2023-02-22T16:42:17.216Z,64.79
2023-02-22T16:46:53.811Z,64.00
2023-02-22T16:50:43.576Z,64.15
2023-02-22T16:54:56.228Z,63.98
2023-02-22T16:58:45.591Z,63.83
2023-02-22T17:02:55.040Z,63.71
2023-02-22T17:07:05.409Z,63.47
2023-02-22T17:11:14.893Z,63.20
2023-02-22T17:15:04.491Z,62.72
2023-02-22T17:18:53.539Z,62.11
2023-02-22T17:22:55.255Z,61.47
2023-02-22T17:26:47.383Z,61.08
2023-02-22T17:30:48.060Z,60.67
2023-02-22T17:34:55.626Z,60.09
2023-02-22T17:38:30.481Z,58.45
2023-02-22T17:42:40.092Z,57.17
2023-02-22T17:46:49.708Z,56.76
2023-02-22T17:50:35.501Z,57.14
2023-02-22T17:54:45.097Z,57.97
2023-02-22T17:58:37.838Z,58.82
2023-02-22T18:02:47.452Z,59.84
2023-02-22T18:06:41.297Z,60.44
2023-02-22T18:10:44.863Z,62.90
2023-02-22T18:14:39.192Z,64.23
2023-02-22T18:18:28.535Z,64.27
2023-02-22T18:22:14.398Z,63.90
2023-02-22T18:26:16.413Z,63.54
2023-02-22T18:30:26.230Z,62.91
2023-02-22T18:34:35.885Z,62.11
2023-02-22T18:38:35.984Z,61.43
2023-02-22T18:42:25.773Z,60.71
2023-02-22T18:46:35.353Z,60.22
2023-02-22T18:50:38.041Z,58.18
2023-02-22T18:54:47.697Z,57.00
2023-02-22T18:58:49.655Z,57.02
2023-02-22T19:02:42.374Z,57.34
2023-02-22T19:06:52.730Z,57.89
2023-02-22T19:11:02.335Z,58.22
2023-02-22T19:15:12.053Z,58.62
2023-02-22T19:19:23.568Z,59.06
2023-02-22T19:23:35.627Z,59.36
2023-02-22T19:27:45.191Z,59.59
2023-02-22T19:31:55.100Z,59.78
2023-02-22T19:36:04.710Z,59.84
2023-02-22T19:39:49.785Z,59.85
2023-02-22T19:43:52.263Z,59.85
2023-02-22T19:48:01.397Z,59.88
2023-02-22T19:52:06.268Z,59.92
2023-02-22T19:56:15.704Z,59.98
2023-02-22T20:00:08.098Z,60.02
2023-02-22T20:04:00.864Z,60.11
2023-02-22T20:08:00.820Z,59.98
2023-02-22T20:11:53.884Z,59.84
2023-02-22T20:15:43.550Z,59.76
2023-02-22T20:19:45.773Z,59.62
2023-02-22T20:23:45.412Z,59.51
2023-02-22T20:27:55.084Z,59.37
2023-02-22T20:32:05.015Z,59.49
2023-02-22T20:36:05.321Z,59.12
2023-02-22T20:40:14.812Z,59.11
2023-02-22T20:44:19.852Z,59.03
2023-02-22T20:48:29.486Z,59.01
2023-02-22T20:52:37.627Z,58.96
2023-02-22T20:56:53.216Z,58.84
2023-02-22T21:00:55.593Z,58.75
2023-02-22T21:05:04.271Z,58.77
2023-02-22T21:09:05.564Z,58.85
2023-02-22T21:13:07.997Z,59.05
2023-02-22T21:17:20.491Z,58.86
2023-02-22T21:21:30.064Z,58.35
2023-02-22T21:25:29.606Z,58.17
2023-02-22T21:29:39.103Z,57.67
2023-02-22T21:33:48.623Z,57.61
2023-02-22T21:37:37.001Z,57.56
2023-02-22T21:41:47.618Z,57.90
2023-02-22T21:45:46.153Z,58.38
2023-02-22T21:49:54.675Z,58.43
2023-02-22T21:54:04.275Z,58.62
2023-02-22T21:57:57.258Z,59.21
2023-02-22T22:02:05.154Z,59.89
2023-02-22T22:06:10.179Z,60.54
2023-02-22T22:10:19.360Z,61.07
2023-02-22T22:14:17.609Z,61.59
2023-02-22T22:18:05.576Z,63.94
2023-02-22T22:22:15.109Z,65.38
2023-02-22T22:26:24.890Z,65.27
2023-02-22T22:30:27.907Z,64.84
2023-02-22T22:34:37.474Z,64.22
2023-02-22T22:38:38.781Z,63.61
2023-02-22T22:42:28.044Z,62.97
2023-02-22T22:46:40.194Z,62.68
2023-02-22T22:50:49.116Z,62.12
2023-02-22T22:54:58.526Z,61.50
2023-02-22T22:59:08.132Z,60.67
2023-02-22T23:03:17.614Z,60.59
2023-02-22T23:07:26.082Z,60.58
2023-02-22T23:11:35.593Z,60.46
2023-02-22T23:15:45.238Z,60.42
2023-02-22T23:19:54.800Z,60.29
2023-02-22T23:24:04.265Z,60.15
2023-02-22T23:27:53.580Z,58.31
2023-02-22T23:32:02.145Z,57.18
2023-02-22T23:36:11.692Z,57.42
2023-02-22T23:40:21.136Z,57.96
2023-02-22T23:44:23.567Z,58.59
2023-02-22T23:48:35.796Z,59.17
2023-02-22T23:52:45.401Z,59.64
2023-02-22T23:56:51.091Z,60.03
